Time;durP1;ratioP1;P1;durP2;ratioP2;P2;SDS_P1;SDS_P2;PMS_P1;PMS_P2;Temp;Humidity;BMP_temperature;BMP_pressure;BME280_temperature;BME280_humidity;BME280_pressure;Samples;Min_cycle;Max_cycle;Signal;HPM_P1;HPM_P2
2023/12/10 00:00:33;;;;;;;56.53;25.33;;;;;;;0.76;84.11;99144.88;5032865;28;20388;-78
2023/12/10 00:03:19;;;;;;;33.42;17.63;;;;;;;0.79;83.51;99144.53;5036168;28;20072;-78
2023/12/10 00:06:06;;;;;;;45.80;23.00;;;;;;;0.82;83.40;99141.59;5035050;28;20048;-79
2023/12/10 00:08:52;;;;;;;37.25;19.23;;;;;;;0.82;83.61;99149.44;5028984;28;20064;-79
2023/12/10 00:11:37;;;;;;;35.65;19.05;;;;;;;0.77;82.69;99136.03;5035714;28;20088;-77
2023/12/10 00:14:24;;;;;;;44.95;22.88;;;;;;;0.82;83.08;99152.06;5028232;28;20628;-77
2023/12/10 00:17:10;;;;;;;41.78;21.42;;;;;;;0.90;82.51;99157.25;5036112;28;20048;-79
2023/12/10 00:19:56;;;;;;;42.15;21.20;;;;;;;0.87;82.63;99154.16;5035748;28;20055;-78
2023/12/10 00:22:42;;;;;;;51.25;26.42;;;;;;;0.74;82.63;99138.97;5035269;28;20368;-77
2023/12/10 00:25:31;;;;;;;36.20;20.38;;;;;;;0.69;83.08;99151.78;5028351;28;20400;-77
2023/12/10 00:28:16;;;;;;;53.67;27.15;;;;;;;0.45;83.47;99139.56;5036088;28;20075;-78
2023/12/10 00:31:07;;;;;;;113.70;48.90;;;;;;;0.40;84.35;99152.31;5028478;28;20044;-79
2023/12/10 00:33:53;;;;;;;59.28;30.20;;;;;;;0.13;84.41;99143.84;5027613;28;20416;-79
2023/12/10 00:36:38;;;;;;;90.68;39.95;;;;;;;-0.12;85.74;99135.19;5028015;28;20052;-78
2023/12/10 00:39:24;;;;;;;98.15;40.33;;;;;;;-0.28;86.61;99143.84;5029221;28;20500;-78
2023/12/10 00:42:09;;;;;;;109.75;47.83;;;;;;;-0.37;87.41;99159.66;5034166;28;20064;-78
2023/12/10 00:44:54;;;;;;;174.57;64.50;;;;;;;-0.50;87.87;99154.91;5034159;28;20048;-78
2023/12/10 00:47:40;;;;;;;113.63;47.58;;;;;;;-0.60;87.99;99157.63;5035619;28;20041;-78
2023/12/10 00:50:26;;;;;;;122.28;46.92;;;;;;;-0.74;88.65;99155.66;5028760;28;20049;-78
2023/12/10 00:53:11;;;;;;;168.82;68.38;;;;;;;-0.85;89.29;99164.56;5027389;28;20048;-77
2023/12/10 00:55:57;;;;;;;248.45;104.82;;;;;;;-0.96;89.16;99163.09;5027545;28;20033;-78
2023/12/10 00:58:43;;;;;;;159.57;70.82;;;;;;;-1.06;89.72;99166.81;5035307;28;20449;-78
2023/12/10 01:01:29;;;;;;;266.60;115.38;;;;;;;-1.14;90.01;99164.94;5028536;28;20389;-79
2023/12/10 01:04:15;;;;;;;132.55;55.13;;;;;;;-1.30;90.42;99138.81;5012958;28;20464;-79
2023/12/10 01:07:00;;;;;;;121.72;52.47;;;;;;;-1.27;90.74;99162.78;5035266;28;20041;-78
2023/12/10 01:09:46;;;;;;;140.88;57.67;;;;;;;-1.34;90.52;99150.53;5026810;28;20045;-79
2023/12/10 01:12:37;;;;;;;182.30;71.60;;;;;;;-1.41;90.81;99158.13;5035410;28;20045;-79
2023/12/10 01:15:32;;;;;;;98.55;45.95;;;;;;;-1.53;90.67;99147.16;5034489;28;20053;-77
2023/12/10 01:18:18;;;;;;;104.18;45.67;;;;;;;-1.65;90.95;99146.59;5021594;28;20064;-79
2023/12/10 01:21:05;;;;;;;101.35;46.45;;;;;;;-1.71;90.74;99138.56;5027303;28;20392;-79
2023/12/10 01:23:54;;;;;;;94.72;45.00;;;;;;;-1.75;91.26;99150.28;5033885;28;20045;-78
2023/12/10 01:26:39;;;;;;;90.20;40.72;;;;;;;-1.77;91.54;99142.59;5026676;28;20404;-78
2023/12/10 01:29:25;;;;;;;90.32;42.25;;;;;;;-1.77;91.37;99153.03;5035312;28;20523;-77
2023/12/10 01:32:10;;;;;;;86.88;40.58;;;;;;;-1.81;91.83;99150.88;5033666;28;20404;-77
2023/12/10 01:34:56;;;;;;;73.63;39.10;;;;;;;-1.97;91.24;99135.97;5038699;28;20047;-78
2023/12/10 01:37:41;;;;;;;81.60;38.67;;;;;;;-2.07;91.90;99138.63;5031618;28;20487;-78
2023/12/10 01:40:28;;;;;;;80.63;37.60;;;;;;;-1.99;91.22;99154.31;5017264;28;20048;-78
2023/12/10 01:43:17;;;;;;;76.57;35.78;;;;;;;-2.04;91.66;99150.53;5038797;28;20411;-78
2023/12/10 01:46:06;;;;;;;84.22;39.92;;;;;;;-2.00;91.71;99155.31;5031132;28;20048;-78
2023/12/10 01:48:53;;;;;;;87.43;38.03;;;;;;;-1.91;92.42;99154.41;5037496;28;20416;-77
2023/12/10 01:51:39;;;;;;;99.68;45.90;;;;;;;-1.77;92.04;99158.22;5038601;28;20060;-77
2023/12/10 01:54:28;;;;;;;123.13;50.20;;;;;;;-1.73;92.44;99156.13;5038054;28;20052;-77
2023/12/10 01:57:15;;;;;;;108.30;44.83;;;;;;;-1.84;91.64;99162.44;5038016;28;20052;-79
2023/12/10 02:00:00;;;;;;;109.20;51.70;;;;;;;-1.94;92.53;99159.91;5034564;28;20404;-79
2023/12/10 02:02:46;;;;;;;110.78;48.83;;;;;;;-1.98;92.03;99162.94;5036907;28;20469;-78
2023/12/10 02:05:31;;;;;;;109.82;49.42;;;;;;;-2.04;91.66;99169.56;5030296;28;20508;-78
2023/12/10 02:08:20;;;;;;;121.10;51.95;;;;;;;-2.17;92.16;99167.34;5016784;28;20033;-78
2023/12/10 02:11:06;;;;;;;117.13;50.38;;;;;;;-2.25;91.57;99163.88;5030518;28;20460;-78
2023/12/10 02:13:51;;;;;;;108.38;49.00;;;;;;;-2.29;91.56;99157.31;5030224;28;20404;-79
2023/12/10 02:16:38;;;;;;;104.55;46.00;;;;;;;-2.34;92.35;99149.97;5036838;28;20468;-78
2023/12/10 02:19:24;;;;;;;109.53;47.20;;;;;;;-2.43;92.66;99143.84;5037053;28;20044;-79
2023/12/10 02:22:13;;;;;;;101.47;46.67;;;;;;;-2.38;92.86;99157.25;5031981;28;20040;-77
2023/12/10 02:25:05;;;;;;;102.35;46.10;;;;;;;-2.44;92.04;99146.63;5022899;28;20420;-78
2023/12/10 02:27:50;;;;;;;99.72;42.90;;;;;;;-2.48;91.94;99132.25;5022651;28;20049;-78
2023/12/10 02:30:36;;;;;;;111.47;44.92;;;;;;;-2.46;92.13;99136.34;5023326;28;20048;-78
2023/12/10 02:33:21;;;;;;;105.65;44.30;;;;;;;-2.52;91.66;99133.53;5029819;28;20760;-78
2023/12/10 02:36:07;;;;;;;91.65;41.50;;;;;;;-2.61;91.94;99114.41;5038490;28;20052;-80
2023/12/10 02:38:52;;;;;;;98.50;41.58;;;;;;;-2.54;92.39;99119.84;5037867;28;20055;-79
2023/12/10 02:41:38;;;;;;;77.30;36.55;;;;;;;-2.59;92.17;99120.28;5009252;28;20068;-78
2023/12/10 02:44:23;;;;;;;85.05;36.53;;;;;;;-2.51;92.35;99111.72;5023262;28;20396;-78
2023/12/10 02:47:09;;;;;;;96.22;38.95;;;;;;;-2.55;92.13;99116.41;5030878;28;20389;-79
2023/12/10 02:49:55;;;;;;;83.65;39.85;;;;;;;-2.51;92.08;99094.31;5015719;28;20072;-79
2023/12/10 02:52:40;;;;;;;89.60;40.33;;;;;;;-2.49;92.02;99109.81;5030890;28;20047;-79
2023/12/10 02:55:26;;;;;;;92.03;40.60;;;;;;;-2.62;92.99;99113.59;5030981;28;20396;-78
2023/12/10 02:58:11;;;;;;;99.57;43.22;;;;;;;-2.55;91.80;99121.63;5029076;28;20065;-79
2023/12/10 03:00:57;;;;;;;101.40;44.65;;;;;;;-2.57;92.44;99123.53;5016584;28;20396;-79
2023/12/10 03:03:42;;;;;;;101.55;43.85;;;;;;;-2.64;91.92;99109.50;5036099;28;20103;-79
2023/12/10 03:06:28;;;;;;;103.53;42.05;;;;;;;-2.65;91.97;99115.69;5036275;28;20052;-79
2023/12/10 03:09:13;;;;;;;101.70;44.15;;;;;;;-2.71;93.17;99122.28;5030355;28;20453;-79
2023/12/10 03:11:58;;;;;;;97.75;41.88;;;;;;;-2.72;92.26;99120.66;5030406;28;20033;-79
2023/12/10 03:14:44;;;;;;;77.95;36.85;;;;;;;-2.80;93.29;99142.19;5036780;28;20080;-80
2023/12/10 03:17:30;;;;;;;73.30;34.42;;;;;;;-2.78;92.66;99136.84;5022628;28;20044;-79
2023/12/10 03:20:15;;;;;;;75.95;35.30;;;;;;;-2.85;91.81;99143.56;5036612;28;20396;-80
2023/12/10 03:23:02;;;;;;;76.55;35.65;;;;;;;-2.77;92.47;99145.47;5030955;28;20072;-79
2023/12/10 03:25:47;;;;;;;83.72;36.65;;;;;;;-2.74;92.16;99147.78;5036125;28;20048;-80
2023/12/10 03:28:33;;;;;;;92.97;39.30;;;;;;;-2.82;91.98;99149.31;5037331;28;20063;-78
2023/12/10 03:31:18;;;;;;;82.55;36.85;;;;;;;-2.84;93.10;99156.44;5015752;28;20044;-82
2023/12/10 03:34:04;;;;;;;95.43;39.78;;;;;;;-2.93;92.43;99151.31;5030345;28;20067;-79
2023/12/10 03:36:49;;;;;;;78.75;36.33;;;;;;;-2.91;92.31;99152.00;5037105;28;20128;-78
2023/12/10 03:39:35;;;;;;;73.25;32.40;;;;;;;-2.89;92.66;99155.25;5036234;28;20076;-79
2023/12/10 03:42:20;;;;;;;97.93;38.08;;;;;;;-2.96;92.40;99155.00;5036085;28;20404;-79
2023/12/10 03:45:06;;;;;;;100.78;41.22;;;;;;;-3.11;91.89;99138.25;5029323;28;20571;-79
2023/12/10 03:47:51;;;;;;;80.47;35.03;;;;;;;-3.11;92.86;99148.66;5035225;28;20393;-79
2023/12/10 03:50:36;;;;;;;81.28;34.80;;;;;;;-3.17;92.65;99151.81;5020914;28;20124;-78
2023/12/10 03:53:22;;;;;;;75.22;33.33;;;;;;;-3.33;92.15;99147.22;5029047;28;20045;-78
2023/12/10 03:56:09;;;;;;;73.03;31.92;;;;;;;-3.18;92.18;99150.19;5015490;28;20388;-79
2023/12/10 03:58:55;;;;;;;76.80;33.65;;;;;;;-3.16;92.64;99161.28;5015366;28;20048;-78
2023/12/10 04:01:43;;;;;;;85.47;35.90;;;;;;;-3.09;92.49;99159.72;5030284;28;20392;-78
2023/12/10 04:04:28;;;;;;;91.15;37.90;;;;;;;-3.19;92.41;99148.56;5035468;28;20044;-80
2023/12/10 04:07:14;;;;;;;76.00;36.08;;;;;;;-3.17;92.62;99150.03;5014827;28;20479;-78
2023/12/10 04:10:01;;;;;;;85.32;35.38;;;;;;;-3.19;92.08;99153.75;5028170;28;20503;-78
2023/12/10 04:12:47;;;;;;;86.13;35.38;;;;;;;-3.22;91.77;99147.06;5029262;28;20043;-79
2023/12/10 04:15:33;;;;;;;77.72;34.88;;;;;;;-3.24;92.48;99135.16;5007680;28;20064;-79
2023/12/10 04:18:18;;;;;;;81.47;35.45;;;;;;;-3.12;92.68;99141.81;5035100;28;20396;-78
2023/12/10 04:21:03;;;;;;;76.30;34.53;;;;;;;-3.20;92.15;99136.50;5029330;28;20036;-79
2023/12/10 04:23:49;;;;;;;73.68;32.58;;;;;;;-3.24;92.19;99127.38;5036259;28;20071;-77
2023/12/10 04:26:34;;;;;;;75.82;31.80;;;;;;;-3.22;92.42;99130.66;5029012;28;20052;-79
2023/12/10 04:29:20;;;;;;;71.65;32.70;;;;;;;-3.23;92.41;99121.19;5034989;28;20051;-81
2023/12/10 04:32:05;;;;;;;83.10;33.53;;;;;;;-3.32;92.44;99105.53;5035359;28;20484;-80
2023/12/10 04:34:51;;;;;;;73.32;33.75;;;;;;;-3.32;92.39;99122.88;5029994;28;20068;-79
2023/12/10 04:37:36;;;;;;;96.65;38.83;;;;;;;-3.34;93.13;99125.63;5035988;28;20428;-80
2023/12/10 04:40:22;;;;;;;93.05;41.00;;;;;;;-3.43;92.27;99121.28;5014103;28;20067;-80
2023/12/10 04:43:07;;;;;;;95.15;40.53;;;;;;;-3.46;92.85;99125.94;5007296;28;20500;-80
2023/12/10 04:45:53;;;;;;;114.78;44.00;;;;;;;-3.38;92.11;99136.47;5034758;28;20071;-79
2023/12/10 04:48:39;;;;;;;94.95;40.65;;;;;;;-3.49;91.88;99127.88;5028247;28;20045;-80
2023/12/10 04:51:24;;;;;;;92.93;38.33;;;;;;;-3.48;92.31;99136.47;5020787;28;20484;-79
2023/12/10 04:54:10;;;;;;;94.20;38.63;;;;;;;-3.38;93.06;99144.25;5027955;28;20390;-79
2023/12/10 04:56:55;;;;;;;104.45;44.95;;;;;;;-3.40;92.32;99140.97;5027889;28;20492;-80
2023/12/10 04:59:41;;;;;;;78.63;36.75;;;;;;;-3.39;91.46;99153.81;5012026;28;20048;-78
2023/12/10 05:02:27;;;;;;;81.72;36.75;;;;;;;-3.45;92.11;99141.38;5029022;28;20391;-79
2023/12/10 05:05:13;;;;;;;78.10;37.65;;;;;;;-3.37;92.39;99145.88;5027630;28;20052;-80
2023/12/10 05:07:58;;;;;;;80.35;38.08;;;;;;;-3.36;91.55;99163.91;5020119;28;20503;-80
2023/12/10 05:10:43;;;;;;;81.60;39.72;;;;;;;-3.45;91.91;99164.78;5033806;28;20047;-79
2023/12/10 05:13:29;;;;;;;88.75;41.97;;;;;;;-3.57;91.65;99158.94;5027991;28;20403;-78
2023/12/10 05:16:15;;;;;;;92.43;44.78;;;;;;;-3.61;92.30;99167.97;5032889;28;20508;-78
2023/12/10 05:19:00;;;;;;;84.05;38.70;;;;;;;-3.60;92.20;99171.41;5034106;28;20072;-79
2023/12/10 05:21:48;;;;;;;89.30;40.75;;;;;;;-3.62;91.52;99162.91;5028194;28;20048;-79
2023/12/10 05:24:33;;;;;;;84.80;37.20;;;;;;;-3.62;91.04;99184.50;5034431;28;20064;-79
2023/12/10 05:27:19;;;;;;;72.57;34.83;;;;;;;-3.70;92.04;99178.38;5028329;28;20384;-80
2023/12/10 05:30:05;;;;;;;81.13;36.55;;;;;;;-3.68;92.40;99168.66;5027071;28;20060;-78
2023/12/10 05:32:50;;;;;;;76.55;34.72;;;;;;;-3.77;92.35;99171.13;5034425;28;20495;-79
2023/12/10 05:35:35;;;;;;;75.28;34.08;;;;;;;-3.83;91.15;99155.28;5028111;28;20067;-79
2023/12/10 05:38:20;;;;;;;59.80;31.10;;;;;;;-3.84;91.50;99169.25;5027151;28;20400;-77
2023/12/10 05:41:06;;;;;;;62.63;31.42;;;;;;;-3.85;92.18;99170.22;5026451;28;20484;-79
2023/12/10 05:43:51;;;;;;;120.72;57.20;;;;;;;-3.73;91.49;99177.72;5013766;28;20393;-79
2023/12/10 05:46:37;;;;;;;269.73;133.90;;;;;;;-3.75;91.75;99174.41;5026508;28;20396;-80
2023/12/10 05:49:23;;;;;;;227.10;104.82;;;;;;;-3.72;92.26;99184.53;5013100;28;20461;-79
2023/12/10 05:52:08;;;;;;;150.10;66.18;;;;;;;-3.76;91.95;99178.00;5027401;28;20041;-79
2023/12/10 05:54:54;;;;;;;119.97;52.55;;;;;;;-3.59;91.83;99189.44;5033937;28;20480;-79
2023/12/10 05:57:40;;;;;;;112.50;49.17;;;;;;;-3.64;91.66;99190.81;5006558;28;20392;-78
2023/12/10 06:00:25;;;;;;;170.82;74.05;;;;;;;-3.60;92.13;99203.38;5027551;28;20468;-80
2023/12/10 06:03:10;;;;;;;180.20;81.15;;;;;;;-3.49;91.75;99195.41;5034152;28;20053;-80
2023/12/10 06:05:56;;;;;;;136.38;62.70;;;;;;;-3.43;91.40;99207.03;5034432;28;20460;-79
2023/12/10 06:08:42;;;;;;;146.43;68.07;;;;;;;-3.40;91.47;99208.53;5027092;28;20722;-79
2023/12/10 06:11:27;;;;;;;181.98;85.95;;;;;;;-3.37;91.58;99222.06;5028344;28;20048;-79
2023/12/10 06:14:13;;;;;;;163.68;76.03;;;;;;;-3.32;91.64;99222.47;5027404;28;20392;-78
2023/12/10 06:16:59;;;;;;;149.63;71.63;;;;;;;-3.26;91.04;99215.88;5028983;28;20461;-79
2023/12/10 06:19:44;;;;;;;144.35;67.97;;;;;;;-3.12;90.78;99230.22;5028153;28;20460;-78
2023/12/10 06:22:30;;;;;;;173.50;75.68;;;;;;;-3.09;91.08;99227.31;5037294;28;20408;-79
2023/12/10 06:25:15;;;;;;;112.05;52.38;;;;;;;-2.91;90.75;99243.81;5037372;28;20468;-80
2023/12/10 06:28:01;;;;;;;122.22;57.10;;;;;;;-2.78;90.33;99246.09;5038500;28;20036;-80
2023/12/10 06:30:46;;;;;;;117.75;54.55;;;;;;;-2.70;90.96;99248.78;5038168;28;20447;-78
2023/12/10 06:33:32;;;;;;;104.82;48.63;;;;;;;-2.61;89.55;99228.88;5030901;28;20053;-80
2023/12/10 06:36:18;;;;;;;98.10;45.60;;;;;;;-2.41;89.62;99235.63;5016292;28;20449;-79
2023/12/10 06:39:04;;;;;;;99.72;47.03;;;;;;;-2.24;89.21;99252.22;5036824;28;20400;-80
2023/12/10 06:41:49;;;;;;;98.47;47.45;;;;;;;-1.70;88.71;99247.84;5037283;28;20063;-80
2023/12/10 06:44:35;;;;;;;83.10;39.83;;;;;;;-1.13;88.14;99238.78;5037238;28;20404;-80
2023/12/10 06:47:21;;;;;;;67.55;34.35;;;;;;;-0.97;86.36;99244.94;5030240;28;20056;-79
2023/12/10 06:50:07;;;;;;;77.60;35.38;;;;;;;-0.63;84.66;99235.44;5037797;28;20067;-80
2023/12/10 06:52:52;;;;;;;76.03;38.20;;;;;;;-0.77;83.73;99249.91;5030546;28;20567;-80
2023/12/10 06:55:38;;;;;;;79.80;38.58;;;;;;;-0.60;83.11;99246.38;5030840;28;20392;-80
2023/12/10 06:58:23;;;;;;;98.18;47.35;;;;;;;-0.65;83.62;99233.00;5016609;28;20064;-79
2023/12/10 07:01:09;;;;;;;104.72;49.90;;;;;;;-0.78;84.92;99237.84;5028412;28;20507;-78
2023/12/10 07:03:54;;;;;;;105.90;45.45;;;;;;;-0.79;84.70;99255.28;5024573;28;20033;-78
2023/12/10 07:06:42;;;;;;;120.13;52.75;;;;;;;-0.69;84.26;99252.53;5037182;28;20037;-79
2023/12/10 07:09:28;;;;;;;111.63;50.80;;;;;;;-0.40;84.16;99254.00;5030375;28;20468;-79
2023/12/10 07:12:14;;;;;;;116.68;51.88;;;;;;;-0.61;84.45;99246.56;5063779;28;20392;-79
2023/12/10 07:15:00;;;;;;;96.53;42.65;;;;;;;-0.53;83.74;99247.41;5036615;28;20048;-79
2023/12/10 07:17:46;;;;;;;76.85;37.83;;;;;;;-0.30;82.85;99246.84;5036579;28;20468;-80
2023/12/10 07:20:31;;;;;;;78.85;39.17;;;;;;;-0.31;82.92;99240.78;5030200;28;20408;-79
2023/12/10 07:23:17;;;;;;;80.43;38.00;;;;;;;-0.04;82.67;99238.88;5029333;28;20468;-80
2023/12/10 07:26:05;;;;;;;72.15;34.28;;;;;;;0.09;81.50;99231.38;5032238;28;20483;-80
2023/12/10 07:28:51;;;;;;;183.30;62.80;;;;;;;0.44;81.26;99222.41;5024708;28;20040;-80
2023/12/10 07:31:37;;;;;;;103.35;43.13;;;;;;;0.35;80.63;99226.00;5032461;28;20060;-78
2023/12/10 07:34:22;;;;;;;100.88;44.47;;;;;;;0.42;79.52;99211.28;5036219;28;20080;-79
2023/12/10 07:37:08;;;;;;;86.07;39.33;;;;;;;0.15;80.70;99212.44;5029069;28;20052;-78
2023/12/10 07:39:53;;;;;;;68.68;33.72;;;;;;;0.31;80.21;99201.16;5030126;28;20067;-79
2023/12/10 07:42:39;;;;;;;101.82;42.15;;;;;;;0.42;79.33;99189.56;5029765;28;20056;-78
2023/12/10 07:45:24;;;;;;;68.63;30.85;;;;;;;0.29;78.98;99184.84;5020717;28;20471;-79
2023/12/10 07:48:09;;;;;;;67.68;32.28;;;;;;;0.26;79.00;99181.75;5027691;28;20063;-79
2023/12/10 07:50:54;;;;;;;63.35;29.73;;;;;;;0.37;79.47;99208.34;5034836;28;20055;-79
2023/12/10 07:53:42;;;;;;;65.25;31.23;;;;;;;0.40;79.38;99205.41;5015077;28;20067;-78
2023/12/10 07:56:27;;;;;;;97.00;41.90;;;;;;;0.32;79.11;99184.50;5034913;28;20063;-78
2023/12/10 07:59:12;;;;;;;92.43;42.25;;;;;;;0.31;79.53;99201.16;5034941;28;20480;-77
2023/12/10 08:01:58;;;;;;;97.22;38.65;;;;;;;0.16;79.22;99193.19;5034785;28;20051;-79
2023/12/10 08:04:43;;;;;;;93.63;44.70;;;;;;;0.15;80.12;99190.72;5027734;28;20055;-78
2023/12/10 08:07:29;;;;;;;100.68;46.67;;;;;;;0.05;79.71;99187.44;5028387;28;20032;-77
2023/12/10 08:10:14;;;;;;;107.70;43.90;;;;;;;0.12;81.65;99191.84;5035345;28;20435;-80
2023/12/10 08:13:00;;;;;;;127.65;52.80;;;;;;;0.13;82.02;99201.34;5028901;28;20483;-80
2023/12/10 08:15:45;;;;;;;108.70;46.00;;;;;;;-0.02;81.68;99200.34;5028563;28;20048;-80
2023/12/10 08:18:31;;;;;;;124.13;49.97;;;;;;;0.18;81.09;99195.63;5019283;28;20393;-79
2023/12/10 08:21:17;;;;;;;134.40;56.05;;;;;;;0.26;81.85;99192.19;5034634;28;20397;-79
2023/12/10 08:24:03;;;;;;;167.18;67.90;;;;;;;0.11;82.62;99197.25;5014186;28;20060;-78
2023/12/10 08:26:49;;;;;;;127.78;57.53;;;;;;;0.27;82.31;99194.63;5034329;28;20064;-79
2023/12/10 08:29:35;;;;;;;139.90;62.47;;;;;;;0.44;81.97;99171.94;5021193;28;20048;-79
2023/12/10 08:32:21;;;;;;;122.95;51.92;;;;;;;0.44;80.94;99172.75;5029251;28;20064;-79
2023/12/10 08:35:06;;;;;;;146.30;67.53;;;;;;;0.55;81.26;99187.25;5033353;28;20068;-80
2023/12/10 08:37:52;;;;;;;121.13;55.95;;;;;;;0.69;80.25;99177.94;5036001;28;20399;-81
2023/12/10 08:40:37;;;;;;;128.15;58.85;;;;;;;0.45;81.65;99178.78;5029301;28;20397;-79
2023/12/10 08:43:22;;;;;;;148.68;65.05;;;;;;;0.49;81.58;99160.94;5033555;28;20043;-78
2023/12/10 08:46:08;;;;;;;137.10;60.63;;;;;;;0.80;81.79;99169.72;5026115;28;20052;-79
2023/12/10 08:48:55;;;;;;;144.70;70.88;;;;;;;0.87;80.45;99173.28;5034432;28;20072;-79
2023/12/10 08:51:41;;;;;;;142.10;60.30;;;;;;;1.04;80.24;99168.00;5034926;28;20499;-81
2023/12/10 08:54:26;;;;;;;88.38;42.17;;;;;;;1.06;79.79;99161.59;5033983;28;20044;-78
2023/12/10 08:57:13;;;;;;;105.45;46.50;;;;;;;1.13;78.74;99162.56;5027045;28;20495;-79
2023/12/10 09:00:00;;;;;;;141.57;63.60;;;;;;;1.13;79.11;99173.03;5031479;28;20119;-80
2023/12/10 09:02:45;;;;;;;137.68;57.22;;;;;;;0.80;79.29;99177.56;5026948;28;20546;-79
2023/12/10 09:05:33;;;;;;;81.10;35.95;;;;;;;0.62;80.71;99182.97;5027911;28;20399;-79
2023/12/10 09:08:18;;;;;;;131.85;53.80;;;;;;;0.54;81.95;99176.97;5028740;28;20408;-79
2023/12/10 09:11:03;;;;;;;140.60;62.90;;;;;;;0.68;81.15;99160.56;5034837;28;20068;-80
2023/12/10 09:13:49;;;;;;;138.70;63.33;;;;;;;0.76;80.82;99163.19;5028663;28;20068;-79
2023/12/10 09:16:34;;;;;;;101.35;44.80;;;;;;;0.69;80.98;99180.53;5028375;28;20055;-80
2023/12/10 09:19:21;;;;;;;123.53;58.25;;;;;;;0.57;81.38;99177.47;5033197;28;20048;-80
2023/12/10 09:22:07;;;;;;;136.63;62.08;;;;;;;0.73;81.73;99176.59;5034961;28;20476;-80
2023/12/10 09:24:52;;;;;;;170.50;78.53;;;;;;;1.00;80.96;99164.06;5034039;28;20039;-79
2023/12/10 09:27:38;;;;;;;138.05;62.03;;;;;;;0.97;81.50;99169.66;5027295;28;20063;-79
2023/12/10 09:30:23;;;;;;;125.53;55.75;;;;;;;0.82;81.11;99172.16;5013771;28;20045;-79
2023/12/10 09:33:10;;;;;;;128.40;54.13;;;;;;;0.83;81.01;99153.66;5028626;28;20380;-78
2023/12/10 09:35:56;;;;;;;123.15;53.80;;;;;;;0.88;81.13;99155.81;5020125;28;20067;-79
2023/12/10 09:38:42;;;;;;;127.78;60.92;;;;;;;1.13;80.36;99162.56;5034879;28;20063;-80
2023/12/10 09:41:27;;;;;;;115.45;54.58;;;;;;;1.23;79.58;99154.50;5028670;28;20040;-78
2023/12/10 09:44:12;;;;;;;116.15;56.15;;;;;;;1.30;79.75;99147.59;5026898;28;20499;-79
2023/12/10 09:46:59;;;;;;;121.47;54.15;;;;;;;1.22;80.59;99147.63;5027552;28;20064;-78
2023/12/10 09:49:45;;;;;;;132.20;57.38;;;;;;;1.15;80.93;99149.28;5033838;28;20407;-79
2023/12/10 09:52:30;;;;;;;145.00;64.65;;;;;;;1.21;81.00;99148.59;5034021;28;20463;-78
2023/12/10 09:55:17;;;;;;;122.43;57.50;;;;;;;1.20;81.33;99144.38;5030589;28;20040;-79
2023/12/10 09:58:03;;;;;;;110.47;50.22;;;;;;;1.24;81.74;99148.28;5031883;28;20044;-78
2023/12/10 10:00:48;;;;;;;94.35;43.83;;;;;;;1.12;82.10;99145.22;5032578;28;20080;-78
2023/12/10 10:03:37;;;;;;;76.18;35.20;;;;;;;0.92;82.02;99126.50;5032530;28;20040;-77
2023/12/10 10:06:22;;;;;;;102.68;47.28;;;;;;;0.92;82.76;99131.72;5038826;28;20044;-78
2023/12/10 10:09:08;;;;;;;115.47;50.75;;;;;;;1.02;82.13;99139.38;5030857;28;20380;-80
2023/12/10 10:11:55;;;;;;;85.32;36.45;;;;;;;0.83;82.51;99134.53;5030235;28;20499;-77
2023/12/10 10:15:08;;;;;;;119.40;51.55;;;;;;;0.90;83.05;99140.72;5023753;28;20392;-78
2023/12/10 10:17:55;;;;;;;106.72;46.13;;;;;;;0.86;83.38;99126.38;5038299;28;20044;-78
2023/12/10 10:20:42;;;;;;;39.10;19.73;;;;;;;0.75;84.09;99126.72;5036915;28;20063;-78
2023/12/10 10:23:31;;;;;;;87.13;38.95;;;;;;;0.83;83.13;99139.78;5030813;28;20051;-78
2023/12/10 10:26:17;;;;;;;66.13;31.80;;;;;;;0.86;83.15;99137.63;5022994;28;20484;-79
2023/12/10 10:29:07;;;;;;;34.47;17.83;;;;;;;0.90;83.02;99136.31;5023347;28;20392;-79
2023/12/10 10:31:55;;;;;;;62.63;28.50;;;;;;;0.84;83.88;99128.31;5022648;28;20060;-78
2023/12/10 10:34:41;;;;;;;89.35;39.53;;;;;;;0.92;83.92;99134.34;5023368;28;20040;-79
2023/12/10 10:37:27;;;;;;;93.13;44.88;;;;;;;1.19;83.33;99134.88;5022170;28;20527;-78
2023/12/10 10:40:12;;;;;;;76.82;35.58;;;;;;;1.31;82.63;99130.06;5009656;28;20056;-79
2023/12/10 10:42:57;;;;;;;65.13;32.33;;;;;;;1.20;82.18;99131.28;5030217;28;20072;-79
2023/12/10 10:45:43;;;;;;;79.82;38.00;;;;;;;1.27;82.37;99137.44;5031444;28;20496;-78
2023/12/10 10:48:28;;;;;;;108.90;44.08;;;;;;;1.53;82.75;99142.38;5030438;28;20060;-79
2023/12/10 10:51:14;;;;;;;36.95;19.88;;;;;;;1.30;81.39;99136.31;5036421;28;20412;-79
2023/12/10 10:54:04;;;;;;;75.43;33.40;;;;;;;1.20;82.56;99144.38;5016086;28;20103;-78
2023/12/10 10:56:50;;;;;;;77.60;38.13;;;;;;;1.39;82.54;99149.16;5008924;28;20423;-78
2023/12/10 10:59:36;;;;;;;69.38;32.22;;;;;;;1.45;81.44;99146.88;5031496;28;20052;-79
2023/12/10 11:02:22;;;;;;;67.22;30.55;;;;;;;1.37;81.27;99148.53;5031936;28;20079;-78
2023/12/10 11:05:07;;;;;;;70.55;32.25;;;;;;;1.42;81.98;99155.06;5018871;28;20396;-78
2023/12/10 11:07:56;;;;;;;31.38;15.38;;;;;;;1.31;81.62;99146.59;5041342;28;20396;-78
2023/12/10 11:10:44;;;;;;;74.70;36.78;;;;;;;1.23;81.76;99138.78;5040361;28;20067;-79
2023/12/10 11:13:46;;;;;;;68.18;30.95;;;;;;;1.32;81.47;99140.38;5021687;28;20400;-79
2023/12/10 11:16:36;;;;;;;62.90;29.55;;;;;;;1.27;80.79;99154.97;5036754;28;20471;-80
2023/12/10 11:19:22;;;;;;;50.40;23.15;;;;;;;1.26;80.39;99154.16;5029011;28;20420;-78
2023/12/10 11:22:08;;;;;;;58.72;27.58;;;;;;;1.11;80.70;99135.75;5021795;28;20476;-80
2023/12/10 11:24:54;;;;;;;70.10;32.55;;;;;;;1.21;81.23;99151.22;5036139;28;20055;-79
2023/12/10 11:27:39;;;;;;;52.55;25.17;;;;;;;1.21;80.76;99142.56;5029447;28;20424;-78
2023/12/10 11:30:25;;;;;;;54.40;26.27;;;;;;;1.32;81.68;99148.25;5029690;28;20079;-79
2023/12/10 11:33:13;;;;;;;74.32;35.97;;;;;;;1.37;81.67;99152.94;5035883;28;20158;-79
2023/12/10 11:36:00;;;;;;;82.10;37.20;;;;;;;1.41;82.35;99148.19;5030455;28;20060;-79
2023/12/10 11:38:46;;;;;;;36.63;19.25;;;;;;;1.34;81.89;99148.88;5036006;28;20060;-80
2023/12/10 11:41:32;;;;;;;77.38;34.42;;;;;;;1.20;82.53;99133.09;5021702;28;20068;-79
2023/12/10 11:44:17;;;;;;;86.75;39.35;;;;;;;1.44;83.07;99158.31;5035871;28;20059;-79
2023/12/10 11:47:05;;;;;;;64.45;31.58;;;;;;;1.32;81.46;99145.63;5021461;28;20690;-80
2023/12/10 11:49:50;;;;;;;64.38;31.17;;;;;;;1.44;82.56;99153.88;5034769;28;20431;-79
2023/12/10 11:52:36;;;;;;;110.85;47.08;;;;;;;1.61;82.35;99154.63;5035072;28;20076;-80
2023/12/10 11:55:22;;;;;;;74.22;34.33;;;;;;;1.54;82.87;99143.22;5021383;28;20471;-79
2023/12/10 11:58:08;;;;;;;62.65;30.05;;;;;;;1.61;82.52;99155.44;5036422;28;20063;-80
2023/12/10 12:01:00;;;;;;;70.60;32.47;;;;;;;1.65;81.79;99171.59;5030177;28;20056;-79
2023/12/10 12:03:49;;;;;;;66.90;32.22;;;;;;;1.54;81.24;99161.53;5036233;28;20400;-79
2023/12/10 12:06:40;;;;;;;67.45;32.65;;;;;;;1.61;81.48;99165.09;5034619;28;20479;-78
2023/12/10 12:09:26;;;;;;;80.35;34.90;;;;;;;1.59;82.20;99175.72;5034581;28;20063;-79
2023/12/10 12:12:11;;;;;;;87.07;38.97;;;;;;;1.54;83.19;99179.88;5034288;28;20083;-78
2023/12/10 12:14:57;;;;;;;61.25;27.67;;;;;;;1.51;83.07;99183.66;5035727;28;20131;-81
2023/12/10 12:17:43;;;;;;;78.80;34.38;;;;;;;1.58;83.82;99191.63;5021869;28;20115;-79
2023/12/10 12:20:30;;;;;;;48.60;25.83;;;;;;;1.43;84.80;99188.09;5007735;28;20075;-79
2023/12/10 12:23:22;;;;;;;85.35;36.63;;;;;;;1.48;84.64;99196.28;5015628;28;20068;-80
2023/12/10 12:26:07;;;;;;;81.30;37.85;;;;;;;1.48;84.96;99198.91;5034202;28;20621;-79
2023/12/10 12:28:52;;;;;;;68.68;31.65;;;;;;;1.53;85.12;99201.81;5028303;28;20048;-79
2023/12/10 12:31:38;;;;;;;76.90;37.30;;;;;;;1.52;85.70;99208.84;5035003;28;20067;-79
2023/12/10 12:34:23;;;;;;;59.10;30.40;;;;;;;1.44;85.62;99208.88;5032178;28;20044;-79
2023/12/10 12:37:08;;;;;;;71.65;31.85;;;;;;;1.46;85.36;99206.09;5034176;28;20047;-80
2023/12/10 12:39:55;;;;;;;84.10;39.58;;;;;;;1.42;86.15;99215.28;5027623;28;20487;-78
2023/12/10 12:42:40;;;;;;;75.40;36.00;;;;;;;1.47;85.88;99215.59;5013035;28;20048;-79